sensor_id;sensor_type;location;lat;lon;timestamp;temperature;humidity
4584;DHT22;2304;47.606;12.186;2023-07-09T00:00:52;23.00;64.10
4584;DHT22;2304;47.606;12.186;2023-07-09T00:05:54;22.90;64.10
4584;DHT22;2304;47.606;12.186;2023-07-09T00:10:58;22.80;64.20
4584;DHT22;2304;47.606;12.186;2023-07-09T00:16:01;22.80;64.60
4584;DHT22;2304;47.606;12.186;2023-07-09T00:21:03;22.70;64.60
4584;DHT22;2304;47.606;12.186;2023-07-09T00:26:09;22.70;65.10
4584;DHT22;2304;47.606;12.186;2023-07-09T00:31:15;22.70;65.20
4584;DHT22;2304;47.606;12.186;2023-07-09T00:36:21;22.60;65.00
4584;DHT22;2304;47.606;12.186;2023-07-09T00:41:26;22.60;65.60
4584;DHT22;2304;47.606;12.186;2023-07-09T00:52:21;22.60;65.10
4584;DHT22;2304;47.606;12.186;2023-07-09T00:57:26;22.50;65.60
4584;DHT22;2304;47.606;12.186;2023-07-09T01:02:28;22.40;63.30
4584;DHT22;2304;47.606;12.186;2023-07-09T01:07:31;22.20;63.10
4584;DHT22;2304;47.606;12.186;2023-07-09T01:12:34;22.30;63.80
4584;DHT22;2304;47.606;12.186;2023-07-09T01:17:36;22.40;64.30
4584;DHT22;2304;47.606;12.186;2023-07-09T01:22:39;22.40;64.30
4584;DHT22;2304;47.606;12.186;2023-07-09T01:27:44;22.40;64.30
4584;DHT22;2304;47.606;12.186;2023-07-09T01:32:46;22.40;65.00
4584;DHT22;2304;47.606;12.186;2023-07-09T01:37:50;22.30;65.30
4584;DHT22;2304;47.606;12.186;2023-07-09T01:42:52;22.30;65.10
4584;DHT22;2304;47.606;12.186;2023-07-09T01:47:54;22.30;65.20
4584;DHT22;2304;47.606;12.186;2023-07-09T01:52:57;22.30;65.40
4584;DHT22;2304;47.606;12.186;2023-07-09T01:58:00;22.30;65.80
4584;DHT22;2304;47.606;12.186;2023-07-09T02:03:06;22.30;66.00
4584;DHT22;2304;47.606;12.186;2023-07-09T02:08:09;22.20;66.10
4584;DHT22;2304;47.606;12.186;2023-07-09T02:13:11;22.20;66.40
4584;DHT22;2304;47.606;12.186;2023-07-09T02:18:13;22.20;65.90
4584;DHT22;2304;47.606;12.186;2023-07-09T02:23:16;22.20;66.30
4584;DHT22;2304;47.606;12.186;2023-07-09T02:28:18;22.20;66.40
4584;DHT22;2304;47.606;12.186;2023-07-09T02:33:20;22.20;66.40
4584;DHT22;2304;47.606;12.186;2023-07-09T02:38:25;22.20;66.40
4584;DHT22;2304;47.606;12.186;2023-07-09T02:43:27;22.20;66.60
4584;DHT22;2304;47.606;12.186;2023-07-09T02:48:29;22.20;66.50
4584;DHT22;2304;47.606;12.186;2023-07-09T02:53:32;22.20;66.60
4584;DHT22;2304;47.606;12.186;2023-07-09T02:58:34;22.10;66.50
4584;DHT22;2304;47.606;12.186;2023-07-09T03:03:36;22.10;67.00
4584;DHT22;2304;47.606;12.186;2023-07-09T03:08:39;22.00;67.20
4584;DHT22;2304;47.606;12.186;2023-07-09T03:13:41;22.00;67.00
4584;DHT22;2304;47.606;12.186;2023-07-09T03:18:43;22.00;67.30
4584;DHT22;2304;47.606;12.186;2023-07-09T03:23:46;22.00;67.60
4584;DHT22;2304;47.606;12.186;2023-07-09T03:28:48;21.90;67.50
4584;DHT22;2304;47.606;12.186;2023-07-09T03:33:51;21.90;67.60
4584;DHT22;2304;47.606;12.186;2023-07-09T03:38:54;21.90;67.40
4584;DHT22;2304;47.606;12.186;2023-07-09T03:43:56;21.80;68.30
4584;DHT22;2304;47.606;12.186;2023-07-09T03:48:59;21.80;68.20
4584;DHT22;2304;47.606;12.186;2023-07-09T03:54:02;21.80;68.30
4584;DHT22;2304;47.606;12.186;2023-07-09T03:59:04;21.80;68.20
4584;DHT22;2304;47.606;12.186;2023-07-09T04:04:06;21.80;67.70
4584;DHT22;2304;47.606;12.186;2023-07-09T04:09:09;21.80;68.30
4584;DHT22;2304;47.606;12.186;2023-07-09T04:14:11;21.80;68.20
4584;DHT22;2304;47.606;12.186;2023-07-09T04:19:13;21.80;68.30
4584;DHT22;2304;47.606;12.186;2023-07-09T04:24:17;21.80;68.50
4584;DHT22;2304;47.606;12.186;2023-07-09T04:29:19;21.80;68.20
4584;DHT22;2304;47.606;12.186;2023-07-09T04:34:21;21.70;68.20
4584;DHT22;2304;47.606;12.186;2023-07-09T04:39:25;21.70;68.40
4584;DHT22;2304;47.606;12.186;2023-07-09T04:44:27;21.80;68.30
4584;DHT22;2304;47.606;12.186;2023-07-09T04:49:29;21.80;68.30
4584;DHT22;2304;47.606;12.186;2023-07-09T04:54:33;21.80;68.30
4584;DHT22;2304;47.606;12.186;2023-07-09T04:59:34;21.90;68.00
4584;DHT22;2304;47.606;12.186;2023-07-09T05:04:36;21.90;68.40
4584;DHT22;2304;47.606;12.186;2023-07-09T05:09:39;22.00;68.50
4584;DHT22;2304;47.606;12.186;2023-07-09T05:14:41;22.10;67.90
4584;DHT22;2304;47.606;12.186;2023-07-09T05:19:44;22.10;66.80
4584;DHT22;2304;47.606;12.186;2023-07-09T05:24:47;22.00;67.80
4584;DHT22;2304;47.606;12.186;2023-07-09T05:29:48;22.20;68.10
4584;DHT22;2304;47.606;12.186;2023-07-09T05:34:50;22.20;68.90
4584;DHT22;2304;47.606;12.186;2023-07-09T05:39:53;22.40;68.60
4584;DHT22;2304;47.606;12.186;2023-07-09T05:44:55;22.40;66.90
4584;DHT22;2304;47.606;12.186;2023-07-09T05:49:57;22.50;67.00
4584;DHT22;2304;47.606;12.186;2023-07-09T05:55:00;22.60;66.60
4584;DHT22;2304;47.606;12.186;2023-07-09T06:00:02;22.80;66.60
4584;DHT22;2304;47.606;12.186;2023-07-09T06:05:05;22.80;65.80
4584;DHT22;2304;47.606;12.186;2023-07-09T06:10:11;23.00;66.40
4584;DHT22;2304;47.606;12.186;2023-07-09T06:15:12;23.10;65.30
4584;DHT22;2304;47.606;12.186;2023-07-09T06:20:14;23.30;66.50
4584;DHT22;2304;47.606;12.186;2023-07-09T06:25:18;23.50;64.90
4584;DHT22;2304;47.606;12.186;2023-07-09T06:30:19;23.70;64.60
4584;DHT22;2304;47.606;12.186;2023-07-09T06:35:21;23.90;62.60
4584;DHT22;2304;47.606;12.186;2023-07-09T06:40:24;24.10;63.00
4584;DHT22;2304;47.606;12.186;2023-07-09T06:45:26;24.40;62.20
4584;DHT22;2304;47.606;12.186;2023-07-09T06:50:28;24.60;62.60
4584;DHT22;2304;47.606;12.186;2023-07-09T06:55:33;24.70;61.10
4584;DHT22;2304;47.606;12.186;2023-07-09T07:00:35;24.90;60.60
4584;DHT22;2304;47.606;12.186;2023-07-09T07:05:37;25.00;62.00
4584;DHT22;2304;47.606;12.186;2023-07-09T07:10:46;25.10;58.30
4584;DHT22;2304;47.606;12.186;2023-07-09T07:15:49;25.10;58.40
4584;DHT22;2304;47.606;12.186;2023-07-09T07:20:51;25.30;58.10
4584;DHT22;2304;47.606;12.186;2023-07-09T07:25:54;25.50;57.80
4584;DHT22;2304;47.606;12.186;2023-07-09T07:31:00;25.50;56.10
4584;DHT22;2304;47.606;12.186;2023-07-09T07:36:04;25.60;56.10
4584;DHT22;2304;47.606;12.186;2023-07-09T07:41:07;25.70;55.90
4584;DHT22;2304;47.606;12.186;2023-07-09T07:46:09;25.90;56.30
4584;DHT22;2304;47.606;12.186;2023-07-09T07:51:11;26.00;54.60
4584;DHT22;2304;47.606;12.186;2023-07-09T07:56:14;26.30;54.70
4584;DHT22;2304;47.606;12.186;2023-07-09T08:01:16;26.50;53.60
4584;DHT22;2304;47.606;12.186;2023-07-09T08:06:18;26.60;52.90
4584;DHT22;2304;47.606;12.186;2023-07-09T08:11:21;26.90;53.70
4584;DHT22;2304;47.606;12.186;2023-07-09T08:16:23;27.10;53.50
4584;DHT22;2304;47.606;12.186;2023-07-09T08:21:25;27.30;52.60
4584;DHT22;2304;47.606;12.186;2023-07-09T08:26:28;27.60;52.60
4584;DHT22;2304;47.606;12.186;2023-07-09T08:31:32;27.70;52.80
4584;DHT22;2304;47.606;12.186;2023-07-09T08:36:34;27.90;51.50
4584;DHT22;2304;47.606;12.186;2023-07-09T08:41:41;28.10;51.70
4584;DHT22;2304;47.606;12.186;2023-07-09T08:46:52;28.30;51.10
4584;DHT22;2304;47.606;12.186;2023-07-09T08:51:56;28.50;51.10
4584;DHT22;2304;47.606;12.186;2023-07-09T08:57:19;28.60;49.40
4584;DHT22;2304;47.606;12.186;2023-07-09T09:02:29;28.90;49.70
4584;DHT22;2304;47.606;12.186;2023-07-09T09:07:39;29.10;47.70
4584;DHT22;2304;47.606;12.186;2023-07-09T09:12:51;29.40;47.50
4584;DHT22;2304;47.606;12.186;2023-07-09T09:18:01;29.30;45.60
4584;DHT22;2304;47.606;12.186;2023-07-09T09:23:14;29.50;47.60
4584;DHT22;2304;47.606;12.186;2023-07-09T09:28:17;29.80;49.30
4584;DHT22;2304;47.606;12.186;2023-07-09T09:33:19;30.10;47.10
4584;DHT22;2304;47.606;12.186;2023-07-09T09:38:22;30.20;47.50
4584;DHT22;2304;47.606;12.186;2023-07-09T09:43:32;30.40;48.00
4584;DHT22;2304;47.606;12.186;2023-07-09T09:48:34;30.60;48.60
4584;DHT22;2304;47.606;12.186;2023-07-09T09:53:41;30.90;48.00
4584;DHT22;2304;47.606;12.186;2023-07-09T09:58:52;31.00;46.90
4584;DHT22;2304;47.606;12.186;2023-07-09T10:03:57;31.20;47.20
4584;DHT22;2304;47.606;12.186;2023-07-09T10:09:05;31.30;47.70
4584;DHT22;2304;47.606;12.186;2023-07-09T10:14:21;31.50;47.90
4584;DHT22;2304;47.606;12.186;2023-07-09T10:19:30;31.60;47.20
4584;DHT22;2304;47.606;12.186;2023-07-09T10:24:43;31.80;47.40
4584;DHT22;2304;47.606;12.186;2023-07-09T10:29:59;32.10;47.90
4584;DHT22;2304;47.606;12.186;2023-07-09T10:35:06;32.30;44.30
4584;DHT22;2304;47.606;12.186;2023-07-09T10:40:14;32.60;44.00
4584;DHT22;2304;47.606;12.186;2023-07-09T10:45:23;32.60;41.70
4584;DHT22;2304;47.606;12.186;2023-07-09T10:50:31;32.80;40.60
4584;DHT22;2304;47.606;12.186;2023-07-09T10:55:40;33.00;38.70
4584;DHT22;2304;47.606;12.186;2023-07-09T11:00:45;33.20;38.90
4584;DHT22;2304;47.606;12.186;2023-07-09T11:05:48;33.30;37.90
4584;DHT22;2304;47.606;12.186;2023-07-09T11:10:54;33.40;38.30
4584;DHT22;2304;47.606;12.186;2023-07-09T11:15:59;33.50;35.00
4584;DHT22;2304;47.606;12.186;2023-07-09T11:21:05;33.60;35.10
4584;DHT22;2304;47.606;12.186;2023-07-09T11:26:12;33.70;35.30
4584;DHT22;2304;47.606;12.186;2023-07-09T11:31:22;33.90;36.80
4584;DHT22;2304;47.606;12.186;2023-07-09T11:36:26;34.10;33.30
4584;DHT22;2304;47.606;12.186;2023-07-09T11:41:37;34.20;34.60
4584;DHT22;2304;47.606;12.186;2023-07-09T11:46:59;34.30;34.10
4584;DHT22;2304;47.606;12.186;2023-07-09T11:52:04;34.30;34.20
4584;DHT22;2304;47.606;12.186;2023-07-09T11:57:11;34.50;35.00
4584;DHT22;2304;47.606;12.186;2023-07-09T12:02:17;34.50;33.20
4584;DHT22;2304;47.606;12.186;2023-07-09T12:07:23;34.50;31.70
4584;DHT22;2304;47.606;12.186;2023-07-09T12:12:26;34.60;32.50
4584;DHT22;2304;47.606;12.186;2023-07-09T12:17:30;34.80;32.20
4584;DHT22;2304;47.606;12.186;2023-07-09T12:22:34;35.10;33.50
4584;DHT22;2304;47.606;12.186;2023-07-09T12:27:36;35.20;31.20
4584;DHT22;2304;47.606;12.186;2023-07-09T12:32:45;35.30;30.70
4584;DHT22;2304;47.606;12.186;2023-07-09T12:37:48;35.20;30.30
4584;DHT22;2304;47.606;12.186;2023-07-09T12:42:53;35.30;31.60
4584;DHT22;2304;47.606;12.186;2023-07-09T12:47:57;35.40;32.10
4584;DHT22;2304;47.606;12.186;2023-07-09T12:53:03;35.60;32.50
4584;DHT22;2304;47.606;12.186;2023-07-09T12:58:08;35.70;34.00
4584;DHT22;2304;47.606;12.186;2023-07-09T13:03:14;35.50;34.10
4584;DHT22;2304;47.606;12.186;2023-07-09T13:08:16;35.60;34.70
4584;DHT22;2304;47.606;12.186;2023-07-09T13:13:20;35.70;34.40
4584;DHT22;2304;47.606;12.186;2023-07-09T13:18:24;35.80;34.50
4584;DHT22;2304;47.606;12.186;2023-07-09T13:23:28;35.70;34.40
4584;DHT22;2304;47.606;12.186;2023-07-09T13:28:31;35.80;34.20
4584;DHT22;2304;47.606;12.186;2023-07-09T13:33:34;35.80;33.70
4584;DHT22;2304;47.606;12.186;2023-07-09T13:38:37;35.80;32.80
4584;DHT22;2304;47.606;12.186;2023-07-09T13:43:42;35.90;34.40
4584;DHT22;2304;47.606;12.186;2023-07-09T13:48:45;35.70;35.30
4584;DHT22;2304;47.606;12.186;2023-07-09T13:53:48;35.60;32.70
4584;DHT22;2304;47.606;12.186;2023-07-09T13:58:51;35.50;32.60
4584;DHT22;2304;47.606;12.186;2023-07-09T14:03:56;35.60;31.90
4584;DHT22;2304;47.606;12.186;2023-07-09T14:08:59;35.60;32.20
4584;DHT22;2304;47.606;12.186;2023-07-09T14:14:01;35.50;32.10
4584;DHT22;2304;47.606;12.186;2023-07-09T14:19:13;35.50;31.70
4584;DHT22;2304;47.606;12.186;2023-07-09T14:24:18;35.40;32.20
4584;DHT22;2304;47.606;12.186;2023-07-09T14:29:22;35.30;33.90
4584;DHT22;2304;47.606;12.186;2023-07-09T14:34:28;35.30;33.80
4584;DHT22;2304;47.606;12.186;2023-07-09T14:39:30;35.30;33.00
4584;DHT22;2304;47.606;12.186;2023-07-09T14:44:32;35.20;31.70
4584;DHT22;2304;47.606;12.186;2023-07-09T14:49:35;34.90;32.20
4584;DHT22;2304;47.606;12.186;2023-07-09T14:54:37;34.90;32.90
4584;DHT22;2304;47.606;12.186;2023-07-09T14:59:38;34.80;32.80
4584;DHT22;2304;47.606;12.186;2023-07-09T15:04:42;34.70;33.40
4584;DHT22;2304;47.606;12.186;2023-07-09T15:09:44;34.70;33.80
4584;DHT22;2304;47.606;12.186;2023-07-09T15:14:46;34.50;33.50
4584;DHT22;2304;47.606;12.186;2023-07-09T15:19:49;34.40;31.80
4584;DHT22;2304;47.606;12.186;2023-07-09T15:24:51;34.30;32.80
4584;DHT22;2304;47.606;12.186;2023-07-09T15:29:53;34.20;33.10
4584;DHT22;2304;47.606;12.186;2023-07-09T15:34:56;34.20;32.40
4584;DHT22;2304;47.606;12.186;2023-07-09T15:39:58;33.90;33.30
4584;DHT22;2304;47.606;12.186;2023-07-09T15:45:00;33.90;32.70
4584;DHT22;2304;47.606;12.186;2023-07-09T15:50:13;33.80;33.60
4584;DHT22;2304;47.606;12.186;2023-07-09T15:55:18;33.70;33.40
4584;DHT22;2304;47.606;12.186;2023-07-09T16:00:23;33.60;33.80
4584;DHT22;2304;47.606;12.186;2023-07-09T16:05:28;33.60;34.50
4584;DHT22;2304;47.606;12.186;2023-07-09T16:10:31;33.40;33.90
4584;DHT22;2304;47.606;12.186;2023-07-09T16:15:32;33.30;33.60
4584;DHT22;2304;47.606;12.186;2023-07-09T16:20:36;33.10;34.60
4584;DHT22;2304;47.606;12.186;2023-07-09T16:25:37;33.00;35.20
4584;DHT22;2304;47.606;12.186;2023-07-09T16:30:39;32.70;35.10
4584;DHT22;2304;47.606;12.186;2023-07-09T16:35:42;32.70;34.30
4584;DHT22;2304;47.606;12.186;2023-07-09T16:40:44;32.50;34.60
4584;DHT22;2304;47.606;12.186;2023-07-09T16:45:47;32.40;35.10
4584;DHT22;2304;47.606;12.186;2023-07-09T16:50:52;32.30;34.90
4584;DHT22;2304;47.606;12.186;2023-07-09T16:55:54;32.10;35.30
4584;DHT22;2304;47.606;12.186;2023-07-09T17:00:56;32.00;35.90
4584;DHT22;2304;47.606;12.186;2023-07-09T17:05:59;31.80;35.60
4584;DHT22;2304;47.606;12.186;2023-07-09T17:11:02;31.70;35.60
4584;DHT22;2304;47.606;12.186;2023-07-09T17:16:05;31.60;35.20
4584;DHT22;2304;47.606;12.186;2023-07-09T17:21:08;31.40;36.60
4584;DHT22;2304;47.606;12.186;2023-07-09T17:26:10;31.20;36.30
4584;DHT22;2304;47.606;12.186;2023-07-09T17:31:12;31.10;36.40
4584;DHT22;2304;47.606;12.186;2023-07-09T17:36:15;30.90;36.40
4584;DHT22;2304;47.606;12.186;2023-07-09T17:41:16;30.80;36.20
4584;DHT22;2304;47.606;12.186;2023-07-09T17:46:18;30.70;35.70
4584;DHT22;2304;47.606;12.186;2023-07-09T17:51:22;30.70;36.60
4584;DHT22;2304;47.606;12.186;2023-07-09T17:56:23;30.60;37.10
4584;DHT22;2304;47.606;12.186;2023-07-09T18:01:30;30.50;38.70
4584;DHT22;2304;47.606;12.186;2023-07-09T18:06:33;30.30;39.40
4584;DHT22;2304;47.606;12.186;2023-07-09T18:11:35;30.20;40.50
4584;DHT22;2304;47.606;12.186;2023-07-09T18:16:37;30.10;41.50
4584;DHT22;2304;47.606;12.186;2023-07-09T18:21:41;30.10;41.50
4584;DHT22;2304;47.606;12.186;2023-07-09T18:26:43;29.90;41.60
4584;DHT22;2304;47.606;12.186;2023-07-09T18:31:45;29.70;43.50
4584;DHT22;2304;47.606;12.186;2023-07-09T18:36:48;29.60;43.30
4584;DHT22;2304;47.606;12.186;2023-07-09T18:41:50;29.40;44.40
4584;DHT22;2304;47.606;12.186;2023-07-09T18:46:52;29.20;44.80
4584;DHT22;2304;47.606;12.186;2023-07-09T18:51:55;29.00;46.50
4584;DHT22;2304;47.606;12.186;2023-07-09T18:56:57;28.90;45.50
4584;DHT22;2304;47.606;12.186;2023-07-09T19:01:59;28.80;45.60
4584;DHT22;2304;47.606;12.186;2023-07-09T19:07:02;28.70;45.50
4584;DHT22;2304;47.606;12.186;2023-07-09T19:12:05;28.50;44.90
4584;DHT22;2304;47.606;12.186;2023-07-09T19:17:11;28.40;46.00
4584;DHT22;2304;47.606;12.186;2023-07-09T19:22:15;28.30;46.30
4584;DHT22;2304;47.606;12.186;2023-07-09T19:27:17;28.20;46.40
4584;DHT22;2304;47.606;12.186;2023-07-09T19:32:23;28.00;47.40
4584;DHT22;2304;47.606;12.186;2023-07-09T19:37:28;27.80;47.30
4584;DHT22;2304;47.606;12.186;2023-07-09T19:42:30;27.70;47.20
4584;DHT22;2304;47.606;12.186;2023-07-09T19:47:34;27.60;48.00
4584;DHT22;2304;47.606;12.186;2023-07-09T19:52:38;27.50;48.60
4584;DHT22;2304;47.606;12.186;2023-07-09T19:57:40;27.30;48.30
4584;DHT22;2304;47.606;12.186;2023-07-09T20:02:42;27.20;48.70
4584;DHT22;2304;47.606;12.186;2023-07-09T20:07:46;27.20;49.30
4584;DHT22;2304;47.606;12.186;2023-07-09T20:12:49;27.00;49.70
4584;DHT22;2304;47.606;12.186;2023-07-09T20:17:55;26.90;49.20
4584;DHT22;2304;47.606;12.186;2023-07-09T20:22:59;26.90;49.40
4584;DHT22;2304;47.606;12.186;2023-07-09T20:28:04;26.80;49.50
4584;DHT22;2304;47.606;12.186;2023-07-09T20:33:08;26.70;50.50
4584;DHT22;2304;47.606;12.186;2023-07-09T20:38:15;26.50;51.20
4584;DHT22;2304;47.606;12.186;2023-07-09T20:43:19;26.40;51.80
4584;DHT22;2304;47.606;12.186;2023-07-09T20:48:22;26.20;51.80
4584;DHT22;2304;47.606;12.186;2023-07-09T20:53:25;26.20;52.10
4584;DHT22;2304;47.606;12.186;2023-07-09T20:58:28;26.10;52.00
4584;DHT22;2304;47.606;12.186;2023-07-09T21:03:30;26.00;51.80
4584;DHT22;2304;47.606;12.186;2023-07-09T21:08:33;25.90;50.90
4584;DHT22;2304;47.606;12.186;2023-07-09T21:13:34;25.80;50.90
4584;DHT22;2304;47.606;12.186;2023-07-09T21:18:36;25.70;50.90
4584;DHT22;2304;47.606;12.186;2023-07-09T21:23:39;25.70;51.60
4584;DHT22;2304;47.606;12.186;2023-07-09T21:28:41;25.50;53.00
4584;DHT22;2304;47.606;12.186;2023-07-09T21:33:43;25.50;52.50
4584;DHT22;2304;47.606;12.186;2023-07-09T21:38:46;25.50;52.90
4584;DHT22;2304;47.606;12.186;2023-07-09T21:43:48;25.40;52.80
4584;DHT22;2304;47.606;12.186;2023-07-09T21:48:50;25.30;53.40
4584;DHT22;2304;47.606;12.186;2023-07-09T21:53:53;25.20;53.70
4584;DHT22;2304;47.606;12.186;2023-07-09T21:58:55;25.10;54.00
4584;DHT22;2304;47.606;12.186;2023-07-09T22:03:56;25.10;52.90
4584;DHT22;2304;47.606;12.186;2023-07-09T22:08:59;24.90;53.20
4584;DHT22;2304;47.606;12.186;2023-07-09T22:14:04;24.80;52.80
4584;DHT22;2304;47.606;12.186;2023-07-09T22:19:07;24.80;53.70
4584;DHT22;2304;47.606;12.186;2023-07-09T22:24:14;24.80;54.80
4584;DHT22;2304;47.606;12.186;2023-07-09T22:29:16;24.70;54.70
4584;DHT22;2304;47.606;12.186;2023-07-09T22:34:20;24.70;54.20
4584;DHT22;2304;47.606;12.186;2023-07-09T22:39:24;24.60;54.60
4584;DHT22;2304;47.606;12.186;2023-07-09T22:44:26;24.60;55.10
4584;DHT22;2304;47.606;12.186;2023-07-09T22:49:28;24.50;55.70
4584;DHT22;2304;47.606;12.186;2023-07-09T22:54:31;24.40;55.60
4584;DHT22;2304;47.606;12.186;2023-07-09T22:59:33;24.40;55.90
4584;DHT22;2304;47.606;12.186;2023-07-09T23:04:35;24.40;56.00
4584;DHT22;2304;47.606;12.186;2023-07-09T23:09:38;24.40;56.40
4584;DHT22;2304;47.606;12.186;2023-07-09T23:14:40;24.30;56.80
4584;DHT22;2304;47.606;12.186;2023-07-09T23:19:41;24.20;57.00
4584;DHT22;2304;47.606;12.186;2023-07-09T23:24:44;24.10;55.90
4584;DHT22;2304;47.606;12.186;2023-07-09T23:29:46;24.00;57.10
4584;DHT22;2304;47.606;12.186;2023-07-09T23:34:48;23.90;57.70
4584;DHT22;2304;47.606;12.186;2023-07-09T23:39:51;23.80;58.00
4584;DHT22;2304;47.606;12.186;2023-07-09T23:44:53;23.80;58.00
4584;DHT22;2304;47.606;12.186;2023-07-09T23:49:55;23.70;58.40
4584;DHT22;2304;47.606;12.186;2023-07-09T23:54:58;23.60;58.40
